Time;durP1;ratioP1;P1;durP2;ratioP2;P2;SDS_P1;SDS_P2;PMS_P1;PMS_P2;Temp;Humidity;BMP_temperature;BMP_pressure;BME280_temperature;BME280_humidity;BME280_pressure;Samples;Min_cycle;Max_cycle;Signal;HPM_P1;HPM_P2
2022/04/16 00:01:09;;;;;;;;;;;;;;;;;;5065525;28;19952;-74
2022/04/16 00:03:35;;;;;;;;;;;;;;;;;;5066614;28;19935;-72
2022/04/16 00:06:01;;;;;;;;;;;;;;;;;;5067698;28;20532;-72
2022/04/16 00:08:27;;;;;;;;;;;;;;;;;;5067486;28;19933;-74
2022/04/16 00:10:53;;;;;;;;;;;;;;;;;;5066700;28;19982;-75
2022/04/16 00:13:19;;;;;;;;;;;;;;;;;;5066916;28;19940;-74
2022/04/16 00:15:46;;;;;;;;;;;;;;;;;;5064827;28;19931;-76
2022/04/16 00:18:12;;;;;;;;;;;;;;;;;;5071917;28;19932;-74
2022/04/16 00:20:40;;;;;;;;;;;;;;;;;;5066704;28;19928;-74
2022/04/16 00:23:06;;;;;;;;;;;;;;;;;;5066860;28;20085;-73
2022/04/16 00:25:33;;;;;;;;;;;;;;;;;;5075841;28;20341;-75
2022/04/16 00:27:59;;;;;;;;;;;;;;;;;;5069874;28;19939;-75
2022/04/16 00:30:25;;;;;;;;;;;;;;;;;;5065273;28;19940;-74
2022/04/16 00:32:55;;;;;;;;;;;;;;;;;;5065760;28;19932;-74
2022/04/16 00:35:21;;;;;;;;;;;;;;;;;;5066768;28;19940;-75
2022/04/16 00:37:47;;;;;;;;;;;;;;;;;;5066317;28;19939;-76
2022/04/16 00:40:13;;;;;;;;;;;;;;;;;;5065905;28;19932;-75
2022/04/16 00:42:39;;;;;;;;;;;;;;;;;;5066273;28;20318;-74
2022/04/16 00:45:05;;;;;;;;;;;;;;;;;;5066885;28;19960;-74
2022/04/16 00:47:32;;;;;;;;;;;;;;;;;;5062689;28;19929;-74
2022/04/16 00:49:58;;;;;;;;;;;;;;;;;;5066441;28;19939;-74
2022/04/16 00:52:24;;;;;;;;;;;;;;;;;;5065239;28;19955;-74
2022/04/16 00:54:50;;;;;;;;;;;;;;;;;;5066292;28;19929;-75
2022/04/16 00:57:16;;;;;;;;;;;;;;;;;;5067768;28;20027;-77
2022/04/16 00:59:42;;;;;;;;;;;;;;;;;;5075504;28;20038;-75
2022/04/16 01:02:10;;;;;;;;;;;;;;;;;;5063629;28;19928;-74
2022/04/16 01:04:36;;;;;;;;;;;;;;;;;;5066710;28;20256;-76
2022/04/16 01:07:02;;;;;;;;;;;;;;;;;;5066332;28;20414;-70
2022/04/16 01:09:29;;;;;;;;;;;;;;;;;;5066196;28;19935;-70
2022/04/16 01:11:56;;;;;;;;;;;;;;;;;;5064917;28;19955;-72
2022/04/16 01:14:22;;;;;;;;;;;;;;;;;;5064028;28;19931;-73
2022/04/16 01:16:48;;;;;;;;;;;;;;;;;;5064143;28;19929;-73
2022/04/16 01:19:15;;;;;;;;;;;;;;;;;;5065539;28;19928;-73
2022/04/16 01:21:41;;;;;;;;;;;;;;;;;;5066017;28;19932;-74
2022/04/16 01:24:09;;;;;;;;;;;;;;;;;;5067440;28;20046;-73
2022/04/16 01:26:35;;;;;;;;;;;;;;;;;;5072843;28;19924;-76
2022/04/16 01:29:02;;;;;;;;;;;;;;;;;;5072334;28;19925;-76
2022/04/16 01:31:30;;;;;;;;;;;;;;;;;;5070284;28;19928;-73
2022/04/16 01:33:57;;;;;;;;;;;;;;;;;;5070905;28;19928;-74
2022/04/16 01:36:24;;;;;;;;;;;;;;;;;;5066976;28;20088;-75
2022/04/16 01:38:50;;;;;;;;;;;;;;;;;;5066071;28;20627;-73
2022/04/16 01:41:16;;;;;;;;;;;;;;;;;;5065345;28;19929;-74
2022/04/16 01:43:42;;;;;;;;;;;;;;;;;;5066195;28;19944;-73
2022/04/16 01:46:08;;;;;;;;;;;;;;;;;;5065015;28;19928;-74
2022/04/16 01:48:35;;;;;;;;;;;;;;;;;;5061366;28;19928;-75
2022/04/16 01:51:01;;;;;;;;;;;;;;;;;;5065067;28;19943;-74
2022/04/16 01:53:27;;;;;;;;;;;;;;;;;;5064783;28;20023;-74
2022/04/16 01:55:53;;;;;;;;;;;;;;;;;;5065059;28;19990;-73
2022/04/16 01:58:20;;;;;;;;;;;;;;;;;;5066525;28;19939;-74
2022/04/16 02:00:47;;;;;;;;;;;;;;;;;;5064311;28;19925;-74
2022/04/16 02:03:14;;;;;;;;;;;;;;;;;;4714955;28;10000407;-76
2022/04/16 02:05:40;;;;;;;;;;;;;;;;;;5066192;28;19931;-75
2022/04/16 02:08:07;;;;;;;;;;;;;;;;;;5065957;28;19935;-73
2022/04/16 02:10:34;;;;;;;;;;;;;;;;;;5065423;28;19970;-75
2022/04/16 02:13:00;;;;;;;;;;;;;;;;;;5065291;28;19935;-74
2022/04/16 02:15:26;;;;;;;;;;;;;;;;;;5065401;28;19999;-73
2022/04/16 02:17:55;;;;;;;;;;;;;;;;;;5068408;28;19924;-74
2022/04/16 02:20:23;;;;;;;;;;;;;;;;;;5068941;28;20301;-77
2022/04/16 02:22:49;;;;;;;;;;;;;;;;;;5068046;28;19991;-76
2022/04/16 02:25:15;;;;;;;;;;;;;;;;;;5068866;28;20407;-75
2022/04/16 02:27:41;;;;;;;;;;;;;;;;;;5067797;28;19932;-73
2022/04/16 02:30:07;;;;;;;;;;;;;;;;;;5066386;28;19925;-73
2022/04/16 02:32:34;;;;;;;;;;;;;;;;;;5081698;22;19935;-74
2022/04/16 02:35:00;;;;;;;;;;;;;;;;;;5043720;28;19932;-74
2022/04/16 02:37:27;;;;;;;;;;;;;;;;;;5041009;28;19925;-71
2022/04/16 02:39:53;;;;;;;;;;;;;;;;;;5047179;28;20326;-74
2022/04/16 02:42:19;;;;;;;;;;;;;;;;;;5046829;28;19928;-71
2022/04/16 02:47:29;;;;;;;;;;;;;;;;;;5040618;28;19927;-71
2022/04/16 02:49:56;;;;;;;;;;;;;;;;;;5047091;28;19925;-74
2022/04/16 02:52:22;;;;;;;;;;;;;;;;;;5045668;28;20418;-73
2022/04/16 02:54:48;;;;;;;;;;;;;;;;;;5047005;28;19986;-73
2022/04/16 02:57:14;;;;;;;;;;;;;;;;;;5046496;28;19924;-74
2022/04/16 02:59:40;;;;;;;;;;;;;;;;;;5046829;28;19924;-72
2022/04/16 03:02:06;;;;;;;;;;;;;;;;;;5044861;28;19944;-73
2022/04/16 03:04:33;;;;;;;;;;;;;;;;;;5046888;28;20415;-73
2022/04/16 03:06:59;;;;;;;;;;;;;;;;;;5046583;28;19929;-73
2022/04/16 03:09:25;;;;;;;;;;;;;;;;;;5046876;28;19929;-73
2022/04/16 03:11:51;;;;;;;;;;;;;;;;;;5045695;28;19952;-74
2022/04/16 03:19:46;;;;;;;;;;;;;;;;;;5046414;28;19919;-74
2022/04/16 03:22:12;;;;;;;;;;;;;;;;;;5045041;28;20363;-73
2022/04/16 03:24:38;;;;;;;;;;;;;;;;;;5046753;28;19925;-71
2022/04/16 03:27:04;;;;;;;;;;;;;;;;;;5046605;28;19925;-72
2022/04/16 03:29:30;;;;;;;;;;;;;;;;;;5045839;28;19936;-72
2022/04/16 03:31:57;;;;;;;;;;;;;;;;;;5044319;28;20003;-72
2022/04/16 03:34:23;;;;;;;;;;;;;;;;;;5046487;28;19925;-73
2022/04/16 03:36:49;;;;;;;;;;;;;;;;;;5046905;28;19947;-71
2022/04/16 03:39:15;;;;;;;;;;;;;;;;;;5046548;28;19925;-72
2022/04/16 03:41:41;;;;;;;;;;;;;;;;;;5045506;28;19952;-73
2022/04/16 03:44:07;;;;;;;;;;;;;;;;;;5046135;28;19925;-72
2022/04/16 03:46:33;;;;;;;;;;;;;;;;;;5045588;28;19958;-72
2022/04/16 03:48:59;;;;;;;;;;;;;;;;;;5046695;28;19925;-72
2022/04/16 03:51:26;;;;;;;;;;;;;;;;;;5042932;28;20035;-76
2022/04/16 03:53:52;;;;;;;;;;;;;;;;;;5046473;28;19925;-74
2022/04/16 04:01:46;;;;;;;;;;;;;;;;;;5039095;28;19920;-72
2022/04/16 04:04:12;;;;;;;;;;;;;;;;;;5046679;28;19940;-74
2022/04/16 04:06:40;;;;;;;;;;;;;;;;;;5046646;28;19925;-74
2022/04/16 04:09:06;;;;;;;;;;;;;;;;;;5046080;28;20031;-73
2022/04/16 04:11:32;;;;;;;;;;;;;;;;;;5044956;28;19974;-72
2022/04/16 04:13:58;;;;;;;;;;;;;;;;;;5046137;28;19939;-72
2022/04/16 04:16:25;;;;;;;;;;;;;;;;;;5045167;28;19936;-73
2022/04/16 04:18:51;;;;;;;;;;;;;;;;;;5045771;28;19929;-73
2022/04/16 04:21:17;;;;;;;;;;;;;;;;;;5045812;28;19925;-72
2022/04/16 04:23:43;;;;;;;;;;;;;;;;;;5045038;28;20023;-74
2022/04/16 04:26:09;;;;;;;;;;;;;;;;;;5046305;28;19928;-74
2022/04/16 04:28:36;;;;;;;;;;;;;;;;;;5046407;28;19959;-72
2022/04/16 04:31:02;;;;;;;;;;;;;;;;;;5045947;28;19948;-72
2022/04/16 04:33:28;;;;;;;;;;;;;;;;;;5046871;28;20291;-73
2022/04/16 04:35:54;;;;;;;;;;;;;;;;;;5046227;28;20295;-72
2022/04/16 04:38:20;;;;;;;;;;;;;;;;;;5046433;28;20383;-72
2022/04/16 04:40:46;;;;;;;;;;;;;;;;;;5048299;28;20274;-72
2022/04/16 04:43:13;;;;;;;;;;;;;;;;;;5049224;28;19962;-73
2022/04/16 04:45:40;;;;;;;;;;;;;;;;;;5048779;28;19929;-73
2022/04/16 04:48:07;;;;;;;;;;;;;;;;;;5051362;28;19928;-73
2022/04/16 04:50:33;;;;;;;;;;;;;;;;;;5050806;28;19929;-73
2022/04/16 04:52:59;;;;;;;;;;;;;;;;;;5050389;28;19970;-71
2022/04/16 04:55:25;;;;;;;;;;;;;;;;;;5049022;28;19933;-75
2022/04/16 04:57:54;;;;;;;;;;;;;;;;;;5053675;28;19925;-73
2022/04/16 05:00:20;;;;;;;;;;;;;;;;;;5057458;28;20343;-71
2022/04/16 05:02:46;;;;;;;;;;;;;;;;;;5051509;28;19932;-73
2022/04/16 05:05:13;;;;;;;;;;;;;;;;;;5069226;28;20039;-72
2022/04/16 05:07:39;;;;;;;;;;;;;;;;;;5084652;28;19950;-72
2022/04/16 05:10:05;;;;;;;;;;;;;;;;;;5094770;28;19935;-72
2022/04/16 05:12:31;;;;;;;;;;;;;;;;;;5093695;28;19940;-73
2022/04/16 05:14:57;;;;;;;;;;;;;;;;;;5088353;28;19972;-73
2022/04/16 05:17:23;;;;;;;;;;;;;;;;;;5084335;28;20508;-72
2022/04/16 05:19:49;;;;;;;;;;;;;;;;;;5066683;28;19924;-73
2022/04/16 05:22:15;;;;;;;;;;;;;;;;;;5052980;28;19925;-73
2022/04/16 05:24:42;;;;;;;;;;;;;;;;;;5062368;28;19927;-71
2022/04/16 05:27:09;;;;;;;;;;;;;;;;;;5064459;28;19973;-74
2022/04/16 05:29:48;;;;;;;;;;;;;;;;;;5072528;28;20327;-72
2022/04/16 05:32:16;;;;;;;;;;;;;;;;;;5062673;28;19975;-72
2022/04/16 05:34:42;;;;;;;;;;;;;;;;;;5062256;28;19931;-73
2022/04/16 05:37:08;;;;;;;;;;;;;;;;;;5059479;28;19932;-72
2022/04/16 05:39:34;;;;;;;;;;;;;;;;;;5077427;28;19925;-73
2022/04/16 05:42:00;;;;;;;;;;;;;;;;;;5069702;28;19931;-73
2022/04/16 05:44:26;;;;;;;;;;;;;;;;;;5071456;28;19925;-73
2022/04/16 05:46:52;;;;;;;;;;;;;;;;;;5072485;28;19981;-74
2022/04/16 05:49:18;;;;;;;;;;;;;;;;;;5073254;28;19959;-73
2022/04/16 05:51:45;;;;;;;;;;;;;;;;;;5072726;28;19913;-73
2022/04/16 05:54:11;;;;;;;;;;;;;;;;;;5074048;28;19942;-76
2022/04/16 05:56:37;;;;;;;;;;;;;;;;;;5072906;28;19925;-75
2022/04/16 05:59:03;;;;;;;;;;;;;;;;;;5069116;28;19932;-75
2022/04/16 06:01:29;;;;;;;;;;;;;;;;;;5067143;28;19935;-75
2022/04/16 06:03:55;;;;;;;;;;;;;;;;;;5068741;28;19929;-75
2022/04/16 06:06:21;;;;;;;;;;;;;;;;;;5068830;28;19924;-74
2022/04/16 06:08:49;;;;;;;;;;;;;;;;;;5068522;28;21227;-73
2022/04/16 06:11:17;;;;;;;;;;;;;;;;;;5069546;28;19925;-75
2022/04/16 06:13:43;;;;;;;;;;;;;;;;;;5067751;28;19929;-77
2022/04/16 06:16:10;;;;;;;;;;;;;;;;;;5064494;28;19924;-75
2022/04/16 06:18:36;;;;;;;;;;;;;;;;;;5059469;28;19940;-71
2022/04/16 06:21:03;;;;;;;;;;;;;;;;;;5067990;28;19924;-73
2022/04/16 06:23:31;;;;;;;;;;;;;;;;;;5063196;28;20360;-74
2022/04/16 06:25:57;;;;;;;;;;;;;;;;;;5060422;28;19924;-75
2022/04/16 06:28:23;;;;;;;;;;;;;;;;;;5054164;28;19949;-74
2022/04/16 06:30:49;;;;;;;;;;;;;;;;;;5051459;28;19924;-73
2022/04/16 06:33:16;;;;;;;;;;;;;;;;;;5054514;28;19925;-75
2022/04/16 06:35:42;;;;;;;;;;;;;;;;;;5054153;28;20279;-70
2022/04/16 06:38:08;;;;;;;;;;;;;;;;;;5051488;28;20027;-71
2022/04/16 06:40:34;;;;;;;;;;;;;;;;;;5049956;28;19928;-71
2022/04/16 06:43:00;;;;;;;;;;;;;;;;;;5048971;28;19925;-71
2022/04/16 06:45:26;;;;;;;;;;;;;;;;;;5041769;28;19951;-70
2022/04/16 06:47:54;;;;;;;;;;;;;;;;;;5050585;28;19925;-71
2022/04/16 06:50:20;;;;;;;;;;;;;;;;;;5051337;28;19944;-71
2022/04/16 06:52:46;;;;;;;;;;;;;;;;;;5048451;28;20020;-71
2022/04/16 06:55:12;;;;;;;;;;;;;;;;;;5048841;28;19940;-72
2022/04/16 06:57:39;;;;;;;;;;;;;;;;;;5050035;28;19924;-71
2022/04/16 07:00:05;;;;;;;;;;;;;;;;;;5050115;28;19928;-71
2022/04/16 07:02:31;;;;;;;;;;;;;;;;;;5048868;28;19947;-73
2022/04/16 07:04:58;;;;;;;;;;;;;;;;;;5051450;28;20383;-73
2022/04/16 07:07:24;;;;;;;;;;;;;;;;;;5052869;28;19933;-74
2022/04/16 07:09:50;;;;;;;;;;;;;;;;;;5052077;28;19925;-73
2022/04/16 07:12:16;;;;;;;;;;;;;;;;;;5052835;28;19929;-72
2022/04/16 07:14:42;;;;;;;;;;;;;;;;;;5053010;28;19929;-73
2022/04/16 07:17:08;;;;;;;;;;;;;;;;;;5050553;28;20386;-71
2022/04/16 07:19:34;;;;;;;;;;;;;;;;;;5052126;28;20690;-73
2022/04/16 07:22:01;;;;;;;;;;;;;;;;;;5050675;28;19985;-74
2022/04/16 07:24:27;;;;;;;;;;;;;;;;;;5049992;28;20418;-71
2022/04/16 07:26:54;;;;;;;;;;;;;;;;;;5047844;28;19936;-74
2022/04/16 07:29:20;;;;;;;;;;;;;;;;;;5056328;28;19969;-74
2022/04/16 07:31:46;;;;;;;;;;;;;;;;;;5046436;28;19959;-73
2022/04/16 07:34:12;;;;;;;;;;;;;;;;;;5047342;28;19944;-73
2022/04/16 07:36:38;;;;;;;;;;;;;;;;;;5049433;28;19939;-72
2022/04/16 07:39:04;;;;;;;;;;;;;;;;;;5046985;28;19937;-72
2022/04/16 07:41:31;;;;;;;;;;;;;;;;;;5045730;28;19935;-71
2022/04/16 07:44:02;;;;;;;;;;;;;;;;;;5046986;28;19925;-72
2022/04/16 07:46:29;;;;;;;;;;;;;;;;;;5041285;28;19925;-72
2022/04/16 07:48:56;;;;;;;;;;;;;;;;;;5046534;28;19940;-74
2022/04/16 07:51:22;;;;;;;;;;;;;;;;;;5046077;28;19978;-71
2022/04/16 07:53:48;;;;;;;;;;;;;;;;;;5046070;28;19932;-74
2022/04/16 07:56:14;;;;;;;;;;;;;;;;;;5046846;28;19924;-73
2022/04/16 07:58:41;;;;;;;;;;;;;;;;;;5047233;28;19924;-74
2022/04/16 08:01:07;;;;;;;;;;;;;;;;;;5049595;28;20020;-71
2022/04/16 08:03:33;;;;;;;;;;;;;;;;;;5060088;28;20366;-72
2022/04/16 08:05:59;;;;;;;;;;;;;;;;;;5048335;28;19987;-74
2022/04/16 08:08:26;;;;;;;;;;;;;;;;;;5042747;28;19951;-73
2022/04/16 08:10:53;;;;;;;;;;;;;;;;;;5046094;28;19951;-73
2022/04/16 08:13:19;;;;;;;;;;;;;;;;;;5046069;28;19995;-73
2022/04/16 08:15:48;;;;;;;;;;;;;;;;;;5045326;28;20002;-72
2022/04/16 08:18:14;;;;;;;;;;;;;;;;;;5051249;28;20636;-74
2022/04/16 08:20:40;;;;;;;;;;;;;;;;;;5051034;28;19987;-73
2022/04/16 08:23:07;;;;;;;;;;;;;;;;;;5050237;28;20390;-75
2022/04/16 08:25:45;;;;;;;;;;;;;;;;;;5050322;28;19929;-75
2022/04/16 08:28:11;;;;;;;;;;;;;;;;;;5050901;28;19948;-74
2022/04/16 08:30:37;;;;;;;;;;;;;;;;;;5050737;28;19936;-73
2022/04/16 08:33:05;;;;;;;;;;;;;;;;;;5087086;22;20345;-73
2022/04/16 08:35:31;;;;;;;;;;;;;;;;;;5079165;28;19932;-76
2022/04/16 08:37:57;;;;;;;;;;;;;;;;;;5070279;28;19924;-74
2022/04/16 08:40:23;;;;;;;;;;;;;;;;;;5072419;28;19925;-74
2022/04/16 08:42:49;;;;;;;;;;;;;;;;;;5069226;28;19929;-74
2022/04/16 08:45:16;;;;;;;;;;;;;;;;;;5069224;28;19929;-73
2022/04/16 08:47:42;;;;;;;;;;;;;;;;;;5069713;28;20287;-73
2022/04/16 08:50:08;;;;;;;;;;;;;;;;;;5069885;28;19974;-75
2022/04/16 08:52:34;;;;;;;;;;;;;;;;;;5069072;28;19928;-74
2022/04/16 08:55:00;;;;;;;;;;;;;;;;;;5069191;28;19932;-74
2022/04/16 08:57:27;;;;;;;;;;;;;;;;;;5059911;28;19924;-75
2022/04/16 08:59:53;;;;;;;;;;;;;;;;;;5058530;28;20400;-74
2022/04/16 09:02:19;;;;;;;;;;;;;;;;;;5065033;28;20378;-73
2022/04/16 09:04:45;;;;;;;;;;;;;;;;;;5063423;28;20653;-74
2022/04/16 09:07:11;;;;;;;;;;;;;;;;;;5066392;28;19925;-74
2022/04/16 09:09:38;;;;;;;;;;;;;;;;;;5067942;28;19966;-75
2022/04/16 09:12:04;;;;;;;;;;;;;;;;;;5066982;28;19928;-74
2022/04/16 09:14:30;;;;;;;;;;;;;;;;;;5068554;28;19931;-76
2022/04/16 09:16:56;;;;;;;;;;;;;;;;;;5067586;28;19932;-75
2022/04/16 09:19:22;;;;;;;;;;;;;;;;;;5069063;28;19929;-75
2022/04/16 09:21:48;;;;;;;;;;;;;;;;;;5066907;28;19940;-74
2022/04/16 09:24:14;;;;;;;;;;;;;;;;;;5062769;28;19936;-74
2022/04/16 09:26:40;;;;;;;;;;;;;;;;;;5064219;28;19929;-75
2022/04/16 09:29:08;;;;;;;;;;;;;;;;;;5062411;28;19940;-76
2022/04/16 09:31:34;;;;;;;;;;;;;;;;;;5063230;28;19924;-73
2022/04/16 09:34:00;;;;;;;;;;;;;;;;;;5056412;28;19935;-73
2022/04/16 09:36:26;;;;;;;;;;;;;;;;;;5068571;28;19935;-74
2022/04/16 09:38:52;;;;;;;;;;;;;;;;;;5067551;28;19928;-74
2022/04/16 09:41:19;;;;;;;;;;;;;;;;;;5066991;28;20465;-75
2022/04/16 09:43:45;;;;;;;;;;;;;;;;;;5067534;28;20395;-76
2022/04/16 09:46:11;;;;;;;;;;;;;;;;;;5066742;28;19932;-73
2022/04/16 09:48:37;;;;;;;;;;;;;;;;;;5066261;28;20067;-75
2022/04/16 09:51:03;;;;;;;;;;;;;;;;;;5061755;28;19924;-78
2022/04/16 09:53:29;;;;;;;;;;;;;;;;;;5064184;28;19928;-74
2022/04/16 09:55:56;;;;;;;;;;;;;;;;;;5066618;28;19955;-74
2022/04/16 09:58:22;;;;;;;;;;;;;;;;;;5066835;28;19929;-73
2022/04/16 10:00:48;;;;;;;;;;;;;;;;;;5064772;28;19945;-74
2022/04/16 10:03:14;;;;;;;;;;;;;;;;;;5065359;28;19931;-72
2022/04/16 10:05:40;;;;;;;;;;;;;;;;;;5066782;28;19935;-72
2022/04/16 10:08:06;;;;;;;;;;;;;;;;;;5067056;28;19986;-74
2022/04/16 10:10:40;;;;;;;;;;;;;;;;;;5066825;28;19932;-74
2022/04/16 10:13:05;;;;;;;;;;;;;;;;;;5065638;28;19928;-72
2022/04/16 10:15:31;;;;;;;;;;;;;;;;;;5064698;28;20437;-71
2022/04/16 10:17:58;;;;;;;;;;;;;;;;;;5064458;28;19935;-72
2022/04/16 10:20:25;;;;;;;;;;;;;;;;;;5065877;28;20112;-73
2022/04/16 10:22:51;;;;;;;;;;;;;;;;;;5063872;28;19924;-73
2022/04/16 10:25:17;;;;;;;;;;;;;;;;;;5063405;28;20288;-74
2022/04/16 10:27:43;;;;;;;;;;;;;;;;;;5061274;28;19924;-72
2022/04/16 10:30:09;;;;;;;;;;;;;;;;;;5066051;28;19935;-73
2022/04/16 10:32:36;;;;;;;;;;;;;;;;;;5064218;28;19925;-74
2022/04/16 10:35:02;;;;;;;;;;;;;;;;;;5056662;28;19928;-74
2022/04/16 10:37:28;;;;;;;;;;;;;;;;;;5066111;28;20410;-74
2022/04/16 10:39:54;;;;;;;;;;;;;;;;;;5066625;28;20306;-75
2022/04/16 10:42:20;;;;;;;;;;;;;;;;;;5065523;28;20349;-74
2022/04/16 10:44:46;;;;;;;;;;;;;;;;;;5065635;28;20412;-75
2022/04/16 10:47:12;;;;;;;;;;;;;;;;;;5062530;28;19928;-73
2022/04/16 10:49:38;;;;;;;;;;;;;;;;;;5059868;28;19928;-74
2022/04/16 10:52:05;;;;;;;;;;;;;;;;;;5061983;28;19933;-73
2022/04/16 10:54:32;;;;;;;;;;;;;;;;;;5062782;28;19929;-73
2022/04/16 10:56:58;;;;;;;;;;;;;;;;;;5062630;28;19924;-74
2022/04/16 10:59:24;;;;;;;;;;;;;;;;;;5067327;28;19932;-74
2022/04/16 11:01:50;;;;;;;;;;;;;;;;;;5064422;28;19939;-74
2022/04/16 11:04:17;;;;;;;;;;;;;;;;;;5064805;28;19928;-73
2022/04/16 11:06:43;;;;;;;;;;;;;;;;;;5056774;28;19932;-74
2022/04/16 11:09:09;;;;;;;;;;;;;;;;;;5064378;28;19939;-74
2022/04/16 11:11:38;;;;;;;;;;;;;;;;;;5063360;28;19932;-74
2022/04/16 11:14:04;;;;;;;;;;;;;;;;;;5063201;28;19932;-73
2022/04/16 11:16:31;;;;;;;;;;;;;;;;;;5064425;28;19942;-74
2022/04/16 11:18:57;;;;;;;;;;;;;;;;;;5061126;28;19963;-73
2022/04/16 11:21:23;;;;;;;;;;;;;;;;;;5064690;28;19929;-72
2022/04/16 11:23:50;;;;;;;;;;;;;;;;;;5064125;28;20411;-73
2022/04/16 11:34:27;;;;;;;;;;;;;;;;;;5079049;28;20020;-74
2022/04/16 11:36:54;;;;;;;;;;;;;;;;;;5080786;28;19942;-73
2022/04/16 11:39:20;;;;;;;;;;;;;;;;;;5081628;28;20402;-73
2022/04/16 11:41:47;;;;;;;;;;;;;;;;;;5080648;28;19931;-74
2022/04/16 11:44:13;;;;;;;;;;;;;;;;;;5081139;28;20272;-73
2022/04/16 11:46:41;;;;;;;;;;;;;;;;;;5076341;28;19933;-74
2022/04/16 11:49:07;;;;;;;;;;;;;;;;;;5082089;28;19963;-74
2022/04/16 11:51:34;;;;;;;;;;;;;;;;;;5077336;28;19947;-75
2022/04/16 11:54:00;;;;;;;;;;;;;;;;;;5070109;28;20351;-73
2022/04/16 11:56:26;;;;;;;;;;;;;;;;;;5070874;28;19928;-72
2022/04/16 11:58:52;;;;;;;;;;;;;;;;;;5068731;28;20490;-74
2022/04/16 12:01:18;;;;;;;;;;;;;;;;;;5063737;28;19924;-75
2022/04/16 12:03:44;;;;;;;;;;;;;;;;;;5069263;28;19931;-74
2022/04/16 12:06:11;;;;;;;;;;;;;;;;;;5069361;28;19939;-74
2022/04/16 12:08:37;;;;;;;;;;;;;;;;;;5069220;28;20015;-74
2022/04/16 12:11:03;;;;;;;;;;;;;;;;;;5066505;28;20303;-73
2022/04/16 12:13:29;;;;;;;;;;;;;;;;;;5065481;28;19961;-73
2022/04/16 12:15:55;;;;;;;;;;;;;;;;;;5068906;28;19924;-73
2022/04/16 12:18:22;;;;;;;;;;;;;;;;;;5069384;28;19932;-73
2022/04/16 12:20:48;;;;;;;;;;;;;;;;;;5059775;28;20543;-76
2022/04/16 12:23:15;;;;;;;;;;;;;;;;;;5068755;28;20571;-73
2022/04/16 12:25:42;;;;;;;;;;;;;;;;;;5069532;28;20365;-74
2022/04/16 12:28:08;;;;;;;;;;;;;;;;;;5070247;28;19970;-74
2022/04/16 12:30:37;;;;;;;;;;;;;;;;;;5066472;28;19935;-72
2022/04/16 12:33:03;;;;;;;;;;;;;;;;;;5064019;28;19932;-72
2022/04/16 12:35:29;;;;;;;;;;;;;;;;;;5069870;28;19928;-73
2022/04/16 12:37:55;;;;;;;;;;;;;;;;;;5068816;28;19928;-75
2022/04/16 12:40:21;;;;;;;;;;;;;;;;;;5061649;28;19932;-74
2022/04/16 12:42:47;;;;;;;;;;;;;;;;;;5069260;28;20556;-74
2022/04/16 12:45:14;;;;;;;;;;;;;;;;;;5069033;28;19924;-74
2022/04/16 12:47:40;;;;;;;;;;;;;;;;;;5068750;28;19929;-72
2022/04/16 12:50:06;;;;;;;;;;;;;;;;;;5069157;28;19986;-72
2022/04/16 12:52:34;;;;;;;;;;;;;;;;;;5067386;28;20387;-72
2022/04/16 12:55:00;;;;;;;;;;;;;;;;;;5069246;28;19924;-73
2022/04/16 12:57:26;;;;;;;;;;;;;;;;;;5068625;28;19928;-74
2022/04/16 12:59:52;;;;;;;;;;;;;;;;;;5069735;28;20338;-74
2022/04/16 13:02:18;;;;;;;;;;;;;;;;;;5067034;28;20075;-73
2022/04/16 13:04:44;;;;;;;;;;;;;;;;;;5068597;28;19929;-73
2022/04/16 13:07:11;;;;;;;;;;;;;;;;;;5068799;28;19935;-73
2022/04/16 13:09:37;;;;;;;;;;;;;;;;;;5069545;28;19928;-73
2022/04/16 13:12:03;;;;;;;;;;;;;;;;;;5067806;28;19925;-74
2022/04/16 13:14:29;;;;;;;;;;;;;;;;;;5069272;28;19932;-74
2022/04/16 13:16:55;;;;;;;;;;;;;;;;;;5067126;28;19996;-73
2022/04/16 13:19:21;;;;;;;;;;;;;;;;;;5069027;28;20379;-73
2022/04/16 13:21:47;;;;;;;;;;;;;;;;;;5067360;28;20748;-73
2022/04/16 13:24:15;;;;;;;;;;;;;;;;;;5070303;28;19924;-74
2022/04/16 13:26:41;;;;;;;;;;;;;;;;;;5066044;28;19924;-73
2022/04/16 13:29:07;;;;;;;;;;;;;;;;;;5068103;28;20028;-73
2022/04/16 13:31:34;;;;;;;;;;;;;;;;;;5064348;28;19925;-73
2022/04/16 13:34:00;;;;;;;;;;;;;;;;;;5066193;28;19978;-72
2022/04/16 13:36:27;;;;;;;;;;;;;;;;;;5066839;28;19925;-73
2022/04/16 13:38:54;;;;;;;;;;;;;;;;;;5068277;28;19931;-73
2022/04/16 13:44:03;;;;;;;;;;;;;;;;;;5068028;28;19931;-73
2022/04/16 13:46:29;;;;;;;;;;;;;;;;;;5065805;28;19924;-74
2022/04/16 13:48:56;;;;;;;;;;;;;;;;;;5067203;28;19924;-75
2022/04/16 13:51:23;;;;;;;;;;;;;;;;;;5068195;28;20389;-74
2022/04/16 13:53:49;;;;;;;;;;;;;;;;;;5066776;28;19931;-73
2022/04/16 13:56:15;;;;;;;;;;;;;;;;;;5060773;28;19928;-74
2022/04/16 13:58:41;;;;;;;;;;;;;;;;;;5062276;28;19968;-74
2022/04/16 14:01:08;;;;;;;;;;;;;;;;;;5063452;28;19925;-73
2022/04/16 14:03:34;;;;;;;;;;;;;;;;;;5066915;28;19970;-73
2022/04/16 14:06:00;;;;;;;;;;;;;;;;;;5063059;28;19924;-74
2022/04/16 14:08:27;;;;;;;;;;;;;;;;;;5068054;28;20704;-73
2022/04/16 14:10:55;;;;;;;;;;;;;;;;;;5068230;28;19968;-73
2022/04/16 14:13:21;;;;;;;;;;;;;;;;;;5067810;28;19951;-73
2022/04/16 14:15:49;;;;;;;;;;;;;;;;;;5065182;28;20186;-74
2022/04/16 14:18:15;;;;;;;;;;;;;;;;;;5067754;28;19925;-74
2022/04/16 14:20:42;;;;;;;;;;;;;;;;;;5067544;28;20023;-75
2022/04/16 14:23:08;;;;;;;;;;;;;;;;;;5067348;28;20387;-72
2022/04/16 14:25:34;;;;;;;;;;;;;;;;;;5067489;28;19928;-73
2022/04/16 14:28:00;;;;;;;;;;;;;;;;;;4715025;28;10000142;-74
2022/04/16 14:30:27;;;;;;;;;;;;;;;;;;5064097;28;19982;-74
2022/04/16 14:32:54;;;;;;;;;;;;;;;;;;5080266;22;19982;-74
2022/04/16 14:35:20;;;;;;;;;;;;;;;;;;5047014;28;19929;-70
2022/04/16 14:37:46;;;;;;;;;;;;;;;;;;5038397;28;20396;-71
2022/04/16 14:40:12;;;;;;;;;;;;;;;;;;5044717;28;19932;-72
2022/04/16 14:42:38;;;;;;;;;;;;;;;;;;5036826;28;19932;-71
2022/04/16 14:45:05;;;;;;;;;;;;;;;;;;5036888;28;19939;-71
2022/04/16 14:47:32;;;;;;;;;;;;;;;;;;5038708;28;19935;-71
2022/04/16 14:49:58;;;;;;;;;;;;;;;;;;5042920;28;20178;-72
2022/04/16 14:52:25;;;;;;;;;;;;;;;;;;5046024;28;20012;-71
2022/04/16 14:54:51;;;;;;;;;;;;;;;;;;5042168;28;19929;-72
2022/04/16 14:57:17;;;;;;;;;;;;;;;;;;5044434;28;20309;-71
2022/04/16 14:59:44;;;;;;;;;;;;;;;;;;5044670;28;19928;-72
2022/04/16 15:02:10;;;;;;;;;;;;;;;;;;5043518;28;19928;-71
2022/04/16 15:04:36;;;;;;;;;;;;;;;;;;5039485;28;19929;-71
2022/04/16 15:07:02;;;;;;;;;;;;;;;;;;5044672;28;19935;-72
2022/04/16 15:09:28;;;;;;;;;;;;;;;;;;5042486;28;20371;-71
2022/04/16 15:11:56;;;;;;;;;;;;;;;;;;5042627;28;19928;-71
2022/04/16 15:14:22;;;;;;;;;;;;;;;;;;5044842;28;20356;-71
2022/04/16 15:16:48;;;;;;;;;;;;;;;;;;5045984;28;19929;-69
2022/04/16 15:19:14;;;;;;;;;;;;;;;;;;5047033;28;19935;-70
2022/04/16 15:21:41;;;;;;;;;;;;;;;;;;5047126;28;20305;-70
2022/04/16 15:24:09;;;;;;;;;;;;;;;;;;5046731;28;20416;-70
2022/04/16 15:26:35;;;;;;;;;;;;;;;;;;5036717;28;19933;-71
2022/04/16 15:29:01;;;;;;;;;;;;;;;;;;5046994;28;19936;-70
2022/04/16 15:31:29;;;;;;;;;;;;;;;;;;5035879;28;19940;-71
2022/04/16 15:33:56;;;;;;;;;;;;;;;;;;4985288;28;1766163;-71
2022/04/16 15:36:23;;;;;;;;;;;;;;;;;;5048029;28;19932;-71
2022/04/16 15:38:50;;;;;;;;;;;;;;;;;;5047432;28;20301;-70
2022/04/16 15:41:16;;;;;;;;;;;;;;;;;;5049115;28;19929;-70
2022/04/16 15:43:42;;;;;;;;;;;;;;;;;;5049496;28;20131;-71
2022/04/16 15:46:08;;;;;;;;;;;;;;;;;;5045849;28;20041;-72
2022/04/16 15:48:34;;;;;;;;;;;;;;;;;;5048694;28;19929;-70
2022/04/16 15:51:00;;;;;;;;;;;;;;;;;;5046561;28;19929;-72
2022/04/16 15:53:27;;;;;;;;;;;;;;;;;;5039745;28;19928;-69
2022/04/16 15:55:53;;;;;;;;;;;;;;;;;;5046358;28;19937;-71
2022/04/16 15:58:19;;;;;;;;;;;;;;;;;;5047648;28;19951;-71
2022/04/16 16:00:45;;;;;;;;;;;;;;;;;;5050920;28;19932;-71
2022/04/16 16:03:11;;;;;;;;;;;;;;;;;;5046966;28;19929;-71
2022/04/16 16:05:38;;;;;;;;;;;;;;;;;;5048961;28;19932;-71
2022/04/16 16:08:04;;;;;;;;;;;;;;;;;;5057587;28;20321;-71
2022/04/16 16:10:31;;;;;;;;;;;;;;;;;;5048598;28;19978;-71
2022/04/16 16:12:57;;;;;;;;;;;;;;;;;;5053265;28;20010;-71
2022/04/16 16:15:24;;;;;;;;;;;;;;;;;;5040760;28;19990;-71
2022/04/16 16:17:50;;;;;;;;;;;;;;;;;;5042997;28;19928;-72
2022/04/16 16:20:17;;;;;;;;;;;;;;;;;;5044158;28;19928;-63
2022/04/16 16:22:44;;;;;;;;;;;;;;;;;;5041125;28;20455;-63
2022/04/16 16:25:10;;;;;;;;;;;;;;;;;;5044468;28;19974;-63
2022/04/16 16:27:37;;;;;;;;;;;;;;;;;;5044631;28;19929;-63
2022/04/16 16:30:03;;;;;;;;;;;;;;;;;;5044778;28;19940;-64
2022/04/16 16:32:30;;;;;;;;;;;;;;;;;;5044019;28;19936;-63
2022/04/16 16:34:56;;;;;;;;;;;;;;;;;;5040949;28;19984;-62
2022/04/16 16:37:22;;;;;;;;;;;;;;;;;;5048570;28;20020;-62
2022/04/16 16:39:48;;;;;;;;;;;;;;;;;;5048211;28;19925;-62
2022/04/16 16:42:15;;;;;;;;;;;;;;;;;;5048450;28;19932;-62
2022/04/16 16:44:42;;;;;;;;;;;;;;;;;;5046521;28;20220;-67
2022/04/16 16:47:08;;;;;;;;;;;;;;;;;;5050832;28;19932;-70
2022/04/16 16:49:34;;;;;;;;;;;;;;;;;;5064041;28;20014;-70
2022/04/16 16:52:00;;;;;;;;;;;;;;;;;;5053953;28;19925;-70
2022/04/16 16:54:27;;;;;;;;;;;;;;;;;;5062011;28;19970;-70
2022/04/16 16:56:53;;;;;;;;;;;;;;;;;;5055195;28;19940;-70
2022/04/16 16:59:20;;;;;;;;;;;;;;;;;;5051028;28;19932;-70
2022/04/16 17:01:46;;;;;;;;;;;;;;;;;;5060092;28;20394;-70
2022/04/16 17:07:23;;;;;;;;;;;;;;;;;;5050964;28;20284;-70